Time;durP1;ratioP1;P1;durP2;ratioP2;P2;SDS_P1;SDS_P2;PMS_P1;PMS_P2;Temp;Humidity;BMP_temperature;BMP_pressure;BME280_temperature;BME280_humidity;BME280_pressure;Samples;Min_cycle;Max_cycle;Signal;HPM_P1;HPM_P2
2022/11/30 00:01:30;;;;;;;2.83;2.65;;;18.10;66.50;;;;;;4987344;28;20053;-17
2022/11/30 00:03:55;;;;;;;3.05;2.83;;;18.00;66.60;;;;;;4990306;28;20034;-17
2022/11/30 00:06:24;;;;;;;3.00;2.80;;;18.10;67.20;;;;;;4987007;28;20196;-17
2022/11/30 00:08:53;;;;;;;2.90;2.80;;;18.00;66.40;;;;;;4984683;28;20038;-17
2022/11/30 00:11:20;;;;;;;3.20;3.00;;;18.10;66.50;;;;;;4988603;28;20065;-20
2022/11/30 00:13:46;;;;;;;2.60;2.50;;;18.10;66.40;;;;;;4984349;28;20023;-17
2022/11/30 00:16:11;;;;;;;3.15;2.95;;;18.10;66.10;;;;;;4984445;28;20503;-17
2022/11/30 00:18:37;;;;;;;3.05;2.85;;;18.00;66.60;;;;;;4988680;28;20034;-17
2022/11/30 00:21:04;;;;;;;3.30;3.10;;;18.00;66.50;;;;;;4989209;28;20042;-16
2022/11/30 00:23:33;;;;;;;2.78;2.65;;;18.00;66.40;;;;;;4986415;28;20046;-17
2022/11/30 00:26:03;;;;;;;2.80;2.60;;;18.00;66.70;;;;;;4988352;28;20124;-17
2022/11/30 00:28:30;;;;;;;3.40;3.10;;;17.90;66.80;;;;;;5003139;28;20506;-17
2022/11/30 00:30:59;;;;;;;3.10;2.90;;;17.90;66.90;;;;;;4988864;28;20049;-17
2022/11/30 00:33:24;;;;;;;3.38;3.17;;;18.00;67.50;;;;;;4983266;28;20034;-17
2022/11/30 00:36:17;;;;;;;2.90;2.72;;;17.90;66.70;;;;;;4988259;28;20523;-17
2022/11/30 00:38:43;;;;;;;2.60;2.47;;;18.00;66.50;;;;;;4984060;28;20042;-17
2022/11/30 00:41:08;;;;;;;2.90;2.70;;;18.00;66.50;;;;;;4988857;28;20049;-17
2022/11/30 00:43:34;;;;;;;2.75;2.60;;;18.00;66.60;;;;;;4988654;28;20053;-17
2022/11/30 00:46:00;;;;;;;2.78;2.67;;;17.90;66.60;;;;;;4991067;28;20511;-17
2022/11/30 00:48:25;;;;;;;3.25;3.05;;;17.90;66.60;;;;;;4989792;28;20050;-17
2022/11/30 00:50:52;;;;;;;3.00;2.80;;;17.80;66.90;;;;;;4988409;28;20066;-17
2022/11/30 00:53:18;;;;;;;3.00;2.80;;;17.90;66.70;;;;;;4985443;28;20042;-17
2022/11/30 00:55:44;;;;;;;2.60;2.40;;;17.90;66.50;;;;;;4987763;28;20802;-17
2022/11/30 00:58:10;;;;;;;2.35;2.25;;;17.90;66.60;;;;;;4985010;28;20628;-17
2022/11/30 01:00:35;;;;;;;2.70;2.60;;;17.80;66.70;;;;;;4988492;28;20053;-17
2022/11/30 01:03:01;;;;;;;2.88;2.67;;;17.80;66.90;;;;;;4987493;28;20069;-16
2022/11/30 01:05:27;;;;;;;2.50;2.40;;;17.80;66.70;;;;;;4988085;28;20046;-17
2022/11/30 01:07:52;;;;;;;3.15;2.92;;;17.80;66.60;;;;;;4984106;28;20538;-17
2022/11/30 01:10:18;;;;;;;2.90;2.70;;;17.90;66.60;;;;;;4987121;28;20052;-17
2022/11/30 01:12:44;;;;;;;2.78;2.58;;;17.90;66.70;;;;;;4987808;28;20042;-17
2022/11/30 01:15:09;;;;;;;2.47;2.38;;;17.90;66.40;;;;;;4988506;28;20053;-17
2022/11/30 01:17:35;;;;;;;2.35;2.25;;;17.80;66.60;;;;;;4979653;28;20456;-17
2022/11/30 01:20:01;;;;;;;2.65;2.55;;;17.90;66.70;;;;;;4989728;28;20034;-16
2022/11/30 01:22:26;;;;;;;2.33;2.22;;;17.90;66.50;;;;;;4989517;28;20495;-17
2022/11/30 01:24:52;;;;;;;2.60;2.40;;;17.80;66.70;;;;;;4986994;28;20069;-17
2022/11/30 01:27:17;;;;;;;2.70;2.50;;;17.80;67.60;;;;;;4984590;28;20532;-17
2022/11/30 01:29:43;;;;;;;2.45;2.33;;;17.90;66.50;;;;;;4988031;28;20049;-17
2022/11/30 01:32:08;;;;;;;2.40;2.30;;;17.90;66.70;;;;;;4988418;28;20122;-17
2022/11/30 01:34:34;;;;;;;2.50;2.40;;;17.80;66.90;;;;;;4984394;28;20047;-17
2022/11/30 01:36:59;;;;;;;2.58;2.47;;;17.70;66.90;;;;;;4987734;28;20529;-17
2022/11/30 01:39:25;;;;;;;2.55;2.42;;;17.90;66.70;;;;;;4985827;28;20061;-16
2022/11/30 01:41:52;;;;;;;2.60;2.50;;;17.80;66.80;;;;;;4985388;28;20050;-16
2022/11/30 01:44:24;;;;;;;2.28;2.17;;;17.80;67.00;;;;;;4986937;28;20035;-16
2022/11/30 01:47:04;;;;;;;2.70;2.60;;;18.00;66.50;;;;;;4986527;28;20042;-17
2022/11/30 01:49:47;;;;;;;2.80;2.60;;;17.90;66.40;;;;;;4989267;28;20043;-17
2022/11/30 01:52:14;;;;;;;2.70;2.50;;;17.80;66.70;;;;;;4982159;28;20046;-17
2022/11/30 01:54:51;;;;;;;2.55;2.45;;;17.70;67.00;;;;;;4986345;28;20161;-17
2022/11/30 01:57:37;;;;;;;2.65;2.55;;;17.70;67.00;;;;;;4983090;28;20054;-17
2022/11/30 02:00:06;;;;;;;2.60;2.40;;;17.80;66.70;;;;;;4970731;28;20034;-17
2022/11/30 02:02:38;;;;;;;2.20;2.10;;;17.70;67.00;;;;;;4984303;28;20499;-17
2022/11/30 02:05:04;;;;;;;2.70;2.50;;;17.60;67.20;;;;;;4987122;28;20054;-17
2022/11/30 02:07:30;;;;;;;2.15;2.05;;;17.70;67.20;;;;;;4987144;28;20069;-18
2022/11/30 02:09:55;;;;;;;2.33;2.22;;;17.70;67.40;;;;;;4986583;28;20038;-17
2022/11/30 02:12:33;;;;;;;3.20;3.00;;;17.80;67.10;;;;;;4991462;28;20396;-22
2022/11/30 02:14:59;;;;;;;2.40;2.30;;;17.90;67.10;;;;;;4985906;28;20042;-17
2022/11/30 02:17:35;;;;;;;2.10;2.00;;;17.90;66.80;;;;;;4988987;28;20038;-16
2022/11/30 02:20:32;;;;;;;2.60;2.50;;;17.70;67.40;;;;;;4986551;28;20126;-24
2022/11/30 02:23:26;;;;;;;2.60;2.50;;;17.80;67.50;;;;;;4979960;28;20594;-17
2022/11/30 02:26:18;;;;;;;2.20;2.10;;;17.90;67.20;;;;;;4990534;28;20447;-17
2022/11/30 02:29:11;;;;;;;2.20;2.10;;;17.90;67.00;;;;;;4984208;28;20065;-17
2022/11/30 02:32:12;;;;;;;2.10;2.00;;;17.90;67.10;;;;;;4990124;28;20492;-17
2022/11/30 02:34:37;;;;;;;2.15;2.05;;;17.80;67.40;;;;;;4960916;28;20053;-17
2022/11/30 02:37:04;;;;;;;2.20;2.00;;;17.90;67.00;;;;;;4943960;28;20251;-17
2022/11/30 02:39:30;;;;;;;2.30;2.20;;;17.80;67.00;;;;;;4971477;28;20031;-17
2022/11/30 02:41:55;;;;;;;2.40;2.30;;;17.80;67.20;;;;;;4957148;28;20163;-17
2022/11/30 02:44:21;;;;;;;1.92;1.83;;;17.70;67.40;;;;;;4957906;28;20440;-17
2022/11/30 02:46:55;;;;;;;2.20;2.10;;;17.70;67.40;;;;;;4956476;28;20031;-17
2022/11/30 02:49:39;;;;;;;1.77;1.67;;;17.60;67.70;;;;;;4959846;28;20035;-17
2022/11/30 02:52:05;;;;;;;1.98;1.83;;;17.70;67.60;;;;;;4959882;28;20059;-17
2022/11/30 02:54:32;;;;;;;1.95;1.85;;;17.80;67.20;;;;;;4946268;28;20038;-17
2022/11/30 02:56:57;;;;;;;1.92;1.83;;;17.90;67.10;;;;;;4946344;28;20551;-17
2022/11/30 02:59:23;;;;;;;2.13;1.95;;;17.80;66.70;;;;;;4944872;28;20038;-17
2022/11/30 03:01:48;;;;;;;1.80;1.70;;;17.80;66.90;;;;;;4935296;28;20423;-17
2022/11/30 03:04:14;;;;;;;1.80;1.70;;;17.90;66.90;;;;;;4962824;28;20042;-17
2022/11/30 03:06:39;;;;;;;1.73;1.63;;;17.90;66.60;;;;;;4959150;28;20043;-17
2022/11/30 03:09:05;;;;;;;2.33;2.13;;;17.90;66.90;;;;;;4960413;28;20058;-17
2022/11/30 03:11:31;;;;;;;1.70;1.60;;;17.90;66.50;;;;;;4977345;28;20050;-17
2022/11/30 03:13:56;;;;;;;1.92;1.83;;;17.60;67.30;;;;;;4990351;28;20089;-17
2022/11/30 03:16:22;;;;;;;1.45;1.42;;;17.70;67.20;;;;;;4988909;28;20038;-17
2022/11/30 03:18:47;;;;;;;2.00;1.90;;;17.80;67.10;;;;;;4989118;28;20043;-18
2022/11/30 03:21:13;;;;;;;1.65;1.55;;;17.80;67.00;;;;;;4990278;28;20459;-17
2022/11/30 03:23:39;;;;;;;2.10;1.67;;;17.80;66.70;;;;;;4989630;28;20063;-17
2022/11/30 03:26:05;;;;;;;1.80;1.70;;;17.90;66.50;;;;;;4988250;28;20050;-17
2022/11/30 03:28:31;;;;;;;1.67;1.58;;;17.80;66.70;;;;;;4988456;28;21619;-17
2022/11/30 03:30:56;;;;;;;2.10;2.00;;;17.80;66.50;;;;;;4989337;28;21191;-16
2022/11/30 03:33:23;;;;;;;1.92;1.83;;;17.70;66.90;;;;;;4989060;28;20042;-17
2022/11/30 03:35:57;;;;;;;1.83;1.73;;;17.90;66.40;;;;;;4990444;28;20065;-17
2022/11/30 03:38:22;;;;;;;1.35;1.30;;;17.80;66.50;;;;;;5012470;28;20075;-17
2022/11/30 03:40:48;;;;;;;1.30;1.30;;;17.80;66.40;;;;;;4988241;28;20070;-17
2022/11/30 03:43:13;;;;;;;1.60;1.50;;;17.90;66.40;;;;;;4990849;28;20054;-17
2022/11/30 03:45:39;;;;;;;1.42;1.33;;;17.70;66.70;;;;;;4989165;28;20104;-17
2022/11/30 03:48:05;;;;;;;1.50;1.40;;;17.70;66.80;;;;;;4990881;28;20069;-17
2022/11/30 03:50:30;;;;;;;1.52;1.48;;;17.70;66.70;;;;;;4991609;28;20101;-17
2022/11/30 03:52:56;;;;;;;1.50;1.40;;;17.70;66.80;;;;;;4990891;28;20042;-17
2022/11/30 03:55:21;;;;;;;1.50;1.40;;;17.60;66.90;;;;;;4990694;28;20046;-17
2022/11/30 03:57:47;;;;;;;1.05;1.05;;;17.80;66.70;;;;;;4990652;28;20050;-17
2022/11/30 04:00:13;;;;;;;1.40;1.30;;;17.70;66.60;;;;;;4989576;28;20046;-16
2022/11/30 04:02:39;;;;;;;1.10;1.10;;;17.60;66.80;;;;;;4990165;28;20038;-17
2022/11/30 04:05:04;;;;;;;1.30;1.30;;;17.70;66.60;;;;;;4989496;28;20696;-17
2022/11/30 04:07:30;;;;;;;1.35;1.35;;;17.70;66.60;;;;;;4989202;28;20916;-17
2022/11/30 04:09:56;;;;;;;1.25;1.20;;;17.70;66.50;;;;;;4986679;28;20133;-22
2022/11/30 04:12:21;;;;;;;1.50;1.40;;;17.70;66.60;;;;;;4988990;28;20045;-17
2022/11/30 04:14:47;;;;;;;1.30;1.20;;;17.60;66.70;;;;;;4988388;28;20050;-17
2022/11/30 04:17:12;;;;;;;1.50;1.40;;;17.70;66.50;;;;;;4992346;28;20396;-17
2022/11/30 04:19:38;;;;;;;1.60;1.50;;;17.60;66.60;;;;;;4984808;28;20128;-22
2022/11/30 04:22:03;;;;;;;1.45;1.35;;;17.60;66.90;;;;;;4986808;28;20049;-17
2022/11/30 04:24:29;;;;;;;1.25;1.15;;;17.60;66.70;;;;;;4988388;28;20419;-24
2022/11/30 04:26:54;;;;;;;1.13;1.13;;;17.60;66.70;;;;;;4986850;28;20049;-17
2022/11/30 04:29:20;;;;;;;1.45;1.40;;;17.70;66.60;;;;;;4988524;28;20042;-17
2022/11/30 04:31:45;;;;;;;1.17;1.17;;;17.60;66.60;;;;;;4988217;28;20474;-17
2022/11/30 04:34:11;;;;;;;1.30;1.30;;;17.70;66.30;;;;;;4986463;28;20049;-17
2022/11/30 04:36:37;;;;;;;1.10;1.10;;;17.60;66.80;;;;;;4986248;28;20133;-17
2022/11/30 04:39:02;;;;;;;1.00;1.00;;;17.50;66.90;;;;;;4982906;28;20121;-26
2022/11/30 04:41:28;;;;;;;1.10;1.10;;;17.60;66.90;;;;;;4983960;28;20113;-17
2022/11/30 04:43:53;;;;;;;1.50;1.40;;;17.60;66.60;;;;;;4987949;28;20416;-16
2022/11/30 04:46:19;;;;;;;1.40;1.30;;;17.60;67.00;;;;;;4985206;28;20058;-18
2022/11/30 04:48:44;;;;;;;1.30;1.20;;;17.50;67.00;;;;;;4987928;28;20047;-17
2022/11/30 04:51:10;;;;;;;1.00;1.00;;;17.50;67.10;;;;;;4984585;28;20602;-22
2022/11/30 04:53:36;;;;;;;0.90;0.90;;;17.50;67.00;;;;;;4985122;28;20042;-21
2022/11/30 04:56:08;;;;;;;1.05;1.05;;;17.40;67.30;;;;;;4987875;28;20062;-16
2022/11/30 04:58:34;;;;;;;1.23;1.23;;;17.50;66.90;;;;;;4985486;28;20046;-17
2022/11/30 05:00:59;;;;;;;1.00;1.00;;;17.50;66.80;;;;;;4989821;28;20058;-16
2022/11/30 05:03:25;;;;;;;1.00;1.00;;;17.50;67.10;;;;;;4987595;28;20065;-17
2022/11/30 05:05:50;;;;;;;0.90;0.90;;;17.60;66.60;;;;;;4989260;28;20064;-16
2022/11/30 05:08:16;;;;;;;1.30;1.30;;;17.50;66.60;;;;;;4989585;28;20116;-16
2022/11/30 05:10:41;;;;;;;1.30;1.20;;;17.40;66.90;;;;;;4985550;28;20035;-17
2022/11/30 05:13:07;;;;;;;1.13;1.08;;;17.30;67.30;;;;;;4987140;28;20129;-17
2022/11/30 05:15:32;;;;;;;0.95;0.95;;;17.50;66.90;;;;;;4985470;28;20039;-17
2022/11/30 05:17:59;;;;;;;1.00;1.00;;;17.40;67.00;;;;;;4987916;28;20073;-16
2022/11/30 05:20:25;;;;;;;1.00;1.00;;;17.50;66.80;;;;;;4991836;28;20049;-17
2022/11/30 05:22:51;;;;;;;1.00;1.00;;;17.40;67.20;;;;;;4988842;28;20564;-17
2022/11/30 05:25:16;;;;;;;0.80;0.80;;;17.50;66.70;;;;;;4989187;28;20052;-16
2022/11/30 05:27:42;;;;;;;1.00;1.00;;;17.50;66.70;;;;;;4986744;28;20064;-16
2022/11/30 05:30:08;;;;;;;1.20;1.20;;;17.60;66.70;;;;;;4987298;28;20041;-17
2022/11/30 05:32:34;;;;;;;1.95;0.90;;;17.60;66.30;;;;;;4987515;28;20034;-17
2022/11/30 05:35:00;;;;;;;1.08;1.08;;;17.50;66.80;;;;;;4989198;28;20515;-17
2022/11/30 05:37:25;;;;;;;0.98;0.98;;;17.50;66.50;;;;;;4986917;28;20058;-17
2022/11/30 05:39:51;;;;;;;1.20;1.10;;;17.50;66.50;;;;;;4986651;28;20840;-18
2022/11/30 05:42:16;;;;;;;0.90;0.90;;;17.40;66.50;;;;;;4987431;28;20038;-17
2022/11/30 05:44:42;;;;;;;1.00;1.00;;;17.40;66.90;;;;;;4988392;28;20516;-17
2022/11/30 05:47:08;;;;;;;0.88;0.88;;;17.40;66.80;;;;;;4988159;28;20101;-17
2022/11/30 05:49:33;;;;;;;1.20;1.20;;;17.30;66.80;;;;;;4987897;28;20031;-17
2022/11/30 05:51:59;;;;;;;0.80;0.80;;;17.30;67.20;;;;;;4986010;28;20157;-17
2022/11/30 05:54:24;;;;;;;0.88;0.88;;;17.30;67.10;;;;;;4987771;28;20069;-16
2022/11/30 05:56:50;;;;;;;0.85;0.85;;;17.30;67.30;;;;;;4986792;28;20046;-17
2022/11/30 05:59:15;;;;;;;0.70;0.70;;;17.30;68.00;;;;;;4986361;28;20108;-17
2022/11/30 06:01:41;;;;;;;0.98;0.98;;;17.20;67.30;;;;;;4986422;28;20054;-17
2022/11/30 06:04:06;;;;;;;0.80;0.80;;;17.20;67.40;;;;;;4985351;28;21411;-17
2022/11/30 06:06:32;;;;;;;0.80;0.80;;;17.30;67.40;;;;;;4986732;28;20124;-17
2022/11/30 06:08:58;;;;;;;1.00;1.00;;;17.30;67.10;;;;;;4986847;28;20041;-17
2022/11/30 06:11:23;;;;;;;0.80;0.80;;;17.30;67.20;;;;;;4982288;28;20046;-17
2022/11/30 06:13:49;;;;;;;0.85;0.85;;;17.30;67.10;;;;;;4987222;28;20105;-17
2022/11/30 06:16:14;;;;;;;0.70;0.70;;;17.30;67.30;;;;;;4975020;28;20051;-16
2022/11/30 06:18:40;;;;;;;0.85;0.85;;;17.40;66.70;;;;;;4981335;28;20463;-17
2022/11/30 06:21:07;;;;;;;0.80;0.80;;;17.30;67.10;;;;;;4984028;28;20039;-16
2022/11/30 06:23:33;;;;;;;0.90;0.90;;;17.20;67.50;;;;;;4987590;28;20062;-17
2022/11/30 06:26:06;;;;;;;0.90;0.90;;;17.30;68.00;;;;;;4986474;28;20533;-17
2022/11/30 06:28:32;;;;;;;0.85;0.85;;;17.30;68.50;;;;;;4979054;28;20150;-18
2022/11/30 06:31:00;;;;;;;1.70;0.80;;;17.40;68.60;;;;;;4985575;28;20125;-16
2022/11/30 06:33:26;;;;;;;0.93;0.93;;;17.30;69.00;;;;;;4983664;28;20054;-18
2022/11/30 06:35:52;;;;;;;1.08;0.98;;;17.30;69.20;;;;;;4990016;28;20424;-26
2022/11/30 06:38:17;;;;;;;0.70;0.70;;;17.20;69.50;;;;;;4987884;28;20057;-17
2022/11/30 06:40:43;;;;;;;1.95;1.05;;;17.30;69.20;;;;;;4984031;28;20038;-17
2022/11/30 06:43:08;;;;;;;0.80;0.80;;;17.20;69.40;;;;;;4986186;28;20073;-19
2022/11/30 06:45:34;;;;;;;1.08;1.08;;;17.30;69.30;;;;;;4986630;28;20049;-17
2022/11/30 06:47:59;;;;;;;0.80;0.80;;;17.20;69.20;;;;;;4986863;28;20682;-17
2022/11/30 06:50:25;;;;;;;0.80;0.80;;;17.40;68.90;;;;;;4986104;28;20482;-17
2022/11/30 06:52:51;;;;;;;0.95;0.95;;;17.30;69.10;;;;;;4987370;28;20087;-17
2022/11/30 06:55:16;;;;;;;0.90;0.90;;;17.40;69.10;;;;;;4989150;28;20054;-17
2022/11/30 06:57:42;;;;;;;2.13;1.10;;;17.40;69.20;;;;;;4989372;28;20037;-17
2022/11/30 07:00:08;;;;;;;0.70;0.70;;;17.30;69.70;;;;;;4990399;28;20129;-17
2022/11/30 07:02:34;;;;;;;1.20;1.10;;;17.20;69.90;;;;;;4989374;28;20511;-23
2022/11/30 07:05:00;;;;;;;0.90;0.90;;;17.20;70.10;;;;;;4988322;28;20069;-17
2022/11/30 07:07:28;;;;;;;2.15;1.00;;;17.20;70.10;;;;;;4990671;28;20055;-17
2022/11/30 07:09:53;;;;;;;0.80;0.80;;;17.40;69.60;;;;;;4988297;28;20149;-18
2022/11/30 07:12:19;;;;;;;0.93;0.77;;;17.30;69.90;;;;;;4644092;28;10000283;-17
2022/11/30 07:14:44;;;;;;;0.80;0.80;;;17.20;70.90;;;;;;4983480;28;20581;-17
2022/11/30 07:17:10;;;;;;;0.80;0.80;;;17.20;70.40;;;;;;4985347;28;20045;-17
2022/11/30 07:19:36;;;;;;;1.75;0.88;;;17.10;70.30;;;;;;4981349;28;20046;-17
2022/11/30 07:22:01;;;;;;;1.50;0.98;;;17.10;70.30;;;;;;4983352;28;20038;-17
2022/11/30 07:27:11;;;;;;;1.30;1.13;;;17.30;70.00;;;;;;4979210;28;20089;-17
2022/11/30 07:29:36;;;;;;;0.70;0.70;;;17.40;69.80;;;;;;4981164;28;20461;-17
2022/11/30 07:32:02;;;;;;;1.05;1.05;;;17.50;69.80;;;;;;4980922;28;20043;-21
2022/11/30 07:34:28;;;;;;;0.70;0.70;;;17.40;69.80;;;;;;4984666;28;20046;-17
2022/11/30 07:36:53;;;;;;;1.00;1.00;;;17.50;69.60;;;;;;4982868;28;20058;-18
2022/11/30 07:39:19;;;;;;;4.03;1.00;;;17.50;69.90;;;;;;4981000;28;20038;-16
2022/11/30 07:41:44;;;;;;;2.08;0.90;;;17.70;69.30;;;;;;4982885;28;20448;-16
2022/11/30 07:44:10;;;;;;;0.90;0.80;;;17.70;69.00;;;;;;4980172;28;20122;-16
2022/11/30 07:46:36;;;;;;;0.90;0.90;;;17.60;69.60;;;;;;4981655;28;20543;-17
2022/11/30 07:49:02;;;;;;;0.80;0.80;;;17.60;69.40;;;;;;4982346;28;20073;-17
2022/11/30 07:51:28;;;;;;;0.80;0.80;;;17.50;69.80;;;;;;4983564;28;20097;-17
2022/11/30 07:53:57;;;;;;;1.42;0.80;;;17.50;69.80;;;;;;4988896;28;20038;-17
2022/11/30 07:56:22;;;;;;;0.73;0.73;;;17.40;70.10;;;;;;4985304;28;20054;-17
2022/11/30 07:58:49;;;;;;;1.05;0.80;;;17.30;70.10;;;;;;4989665;28;20104;-16
2022/11/30 08:01:20;;;;;;;1.55;1.00;;;17.30;71.50;;;;;;4989685;28;20045;-16
2022/11/30 08:03:46;;;;;;;1.02;0.90;;;17.40;70.00;;;;;;4980500;28;20060;-26
2022/11/30 08:06:14;;;;;;;0.80;0.80;;;17.20;70.60;;;;;;4989465;28;20423;-17
2022/11/30 08:08:43;;;;;;;1.95;1.30;;;17.20;70.40;;;;;;4989391;28;20050;-19
2022/11/30 08:11:11;;;;;;;1.10;1.10;;;17.20;70.30;;;;;;4987392;28;20062;-20
2022/11/30 08:13:36;;;;;;;1.95;1.00;;;17.30;70.20;;;;;;4983963;28;20077;-17
2022/11/30 08:16:04;;;;;;;1.13;0.85;;;17.30;70.60;;;;;;4989303;28;20046;-17
2022/11/30 08:18:29;;;;;;;1.17;1.00;;;17.20;70.80;;;;;;4988169;28;20123;-17
2022/11/30 08:20:56;;;;;;;0.70;0.70;;;17.10;72.00;;;;;;4987711;28;20162;-17
2022/11/30 08:23:22;;;;;;;2.33;0.82;;;17.10;71.30;;;;;;4992296;28;20050;-17
2022/11/30 08:25:47;;;;;;;1.35;0.70;;;17.20;71.60;;;;;;4988477;28;20459;-17
2022/11/30 08:28:13;;;;;;;1.15;1.05;;;17.20;71.00;;;;;;4989133;28;20052;-17
2022/11/30 08:30:39;;;;;;;0.77;0.77;;;17.20;71.10;;;;;;4989277;28;20033;-16
2022/11/30 08:33:04;;;;;;;0.77;0.77;;;17.20;71.20;;;;;;4992033;28;20683;-17
2022/11/30 08:35:30;;;;;;;1.30;0.80;;;17.20;71.30;;;;;;4990281;28;20058;-16
2022/11/30 08:37:55;;;;;;;1.67;1.00;;;17.10;71.50;;;;;;4988067;28;20034;-17
2022/11/30 08:40:21;;;;;;;1.15;0.88;;;17.20;71.30;;;;;;4984825;28;20618;-17
2022/11/30 08:42:46;;;;;;;2.25;0.95;;;17.30;71.00;;;;;;4987743;28;20148;-17
2022/11/30 08:45:12;;;;;;;1.48;0.85;;;17.40;70.80;;;;;;4989166;28;20061;-17
2022/11/30 08:47:37;;;;;;;1.95;0.95;;;17.20;71.00;;;;;;4988284;28;20077;-17
2022/11/30 08:50:03;;;;;;;0.90;0.90;;;17.10;71.70;;;;;;4988709;28;20038;-17
2022/11/30 08:52:29;;;;;;;1.10;1.00;;;17.10;71.70;;;;;;4989130;28;20042;-16
2022/11/30 08:54:55;;;;;;;0.90;0.90;;;17.00;71.90;;;;;;4988607;28;20444;-17
2022/11/30 08:57:21;;;;;;;2.08;1.13;;;17.00;71.80;;;;;;4988643;28;20038;-17
2022/11/30 08:59:47;;;;;;;1.00;1.00;;;17.10;71.50;;;;;;4988240;28;20045;-17
2022/11/30 09:02:16;;;;;;;2.75;1.30;;;17.10;71.60;;;;;;4985237;28;20054;-17
2022/11/30 09:04:42;;;;;;;1.15;1.02;;;17.10;71.60;;;;;;4988366;28;20100;-17
2022/11/30 09:07:08;;;;;;;1.00;0.85;;;17.10;71.40;;;;;;4988023;28;20062;-17
2022/11/30 09:09:34;;;;;;;0.75;0.75;;;17.10;71.50;;;;;;4988141;28;20504;-17
2022/11/30 09:12:00;;;;;;;0.80;0.80;;;17.10;71.50;;;;;;4988010;28;20053;-17
2022/11/30 09:14:25;;;;;;;0.82;0.70;;;17.00;71.70;;;;;;4987528;28;20043;-17
2022/11/30 09:16:52;;;;;;;1.20;0.90;;;16.90;71.90;;;;;;4987803;28;20038;-17
2022/11/30 09:19:18;;;;;;;1.63;0.90;;;16.90;71.90;;;;;;4987891;28;20070;-16
2022/11/30 09:21:43;;;;;;;2.47;0.85;;;16.90;71.90;;;;;;4987734;28;20058;-17
2022/11/30 09:24:09;;;;;;;0.80;0.80;;;16.90;71.90;;;;;;4988385;28;20125;-17
2022/11/30 09:26:34;;;;;;;0.70;0.70;;;16.90;71.90;;;;;;4988114;28;20034;-16
2022/11/30 09:29:00;;;;;;;4.22;0.90;;;16.90;71.90;;;;;;4987437;28;20669;-17
2022/11/30 09:31:26;;;;;;;0.90;0.90;;;17.00;71.70;;;;;;4988033;28;20045;-17
2022/11/30 09:33:52;;;;;;;1.48;0.95;;;17.00;71.70;;;;;;4988253;28;20061;-17
2022/11/30 09:36:20;;;;;;;0.80;0.80;;;17.00;71.70;;;;;;4988344;28;20046;-17
2022/11/30 09:38:46;;;;;;;0.82;0.80;;;17.00;71.60;;;;;;4986902;28;20084;-17
2022/11/30 09:41:42;;;;;;;0.60;0.60;;;17.00;71.40;;;;;;4987745;28;20046;-17
2022/11/30 09:44:14;;;;;;;0.90;0.90;;;17.00;71.50;;;;;;4985592;28;20045;-17
2022/11/30 09:46:54;;;;;;;0.95;0.60;;;16.90;71.60;;;;;;4987624;28;20064;-16
2022/11/30 09:49:29;;;;;;;0.80;0.80;;;17.00;71.70;;;;;;4981711;28;20043;-17
2022/11/30 09:51:57;;;;;;;0.73;0.73;;;16.90;71.70;;;;;;5015782;28;20054;-17
2022/11/30 09:54:52;;;;;;;0.85;0.80;;;16.90;71.70;;;;;;4986189;28;20066;-17
2022/11/30 09:57:29;;;;;;;0.88;0.88;;;16.90;71.60;;;;;;4985442;28;20046;-17
2022/11/30 10:00:03;;;;;;;0.70;0.70;;;17.00;71.50;;;;;;4986084;28;20566;-17
2022/11/30 10:02:36;;;;;;;0.80;0.80;;;17.00;71.30;;;;;;4985745;28;20042;-17
2022/11/30 10:05:02;;;;;;;1.73;0.75;;;17.00;71.50;;;;;;4984253;28;20100;-26
2022/11/30 10:07:38;;;;;;;0.52;0.52;;;16.90;71.50;;;;;;4988608;28;20047;-17
2022/11/30 10:10:42;;;;;;;0.75;0.60;;;16.90;71.50;;;;;;4986153;28;20420;-17
2022/11/30 10:13:22;;;;;;;1.30;0.82;;;17.00;71.00;;;;;;4970342;28;20058;-17
2022/11/30 10:16:00;;;;;;;2.00;0.50;;;17.10;71.00;;;;;;4987003;28;20487;-17
2022/11/30 10:18:32;;;;;;;1.05;0.95;;;17.10;70.90;;;;;;4986916;28;20049;-18
2022/11/30 10:21:04;;;;;;;0.60;0.60;;;17.00;71.30;;;;;;4985942;28;20097;-17
2022/11/30 10:23:52;;;;;;;1.48;0.70;;;17.00;71.30;;;;;;4985518;28;20085;-16
2022/11/30 10:26:31;;;;;;;0.60;0.60;;;17.00;71.40;;;;;;4988434;28;20516;-17
2022/11/30 10:29:01;;;;;;;0.70;0.70;;;17.10;71.30;;;;;;4989130;28;20638;-17
2022/11/30 10:31:34;;;;;;;0.40;0.40;;;17.20;71.00;;;;;;4986220;28;20043;-16
2022/11/30 10:34:24;;;;;;;0.73;0.70;;;17.30;70.50;;;;;;4989620;28;20034;-17
2022/11/30 10:37:03;;;;;;;0.68;0.52;;;17.40;70.30;;;;;;4989819;28;20682;-17
2022/11/30 10:39:36;;;;;;;0.57;0.57;;;17.40;70.40;;;;;;4990516;28;20042;-17
2022/11/30 10:42:16;;;;;;;0.43;0.40;;;17.50;69.70;;;;;;4972371;28;20531;-17
2022/11/30 10:44:44;;;;;;;0.70;0.70;;;17.50;69.80;;;;;;4976112;28;21649;-17
2022/11/30 10:47:09;;;;;;;0.85;0.55;;;17.60;69.30;;;;;;4989813;28;20582;-17
2022/11/30 10:49:36;;;;;;;1.70;0.50;;;17.70;69.00;;;;;;4990852;28;20089;-17
2022/11/30 10:52:04;;;;;;;0.65;0.60;;;17.70;68.80;;;;;;4989195;28;20060;-17
2022/11/30 10:54:29;;;;;;;0.70;0.60;;;17.50;69.30;;;;;;4989766;28;20455;-17
2022/11/30 10:57:00;;;;;;;0.50;0.50;;;17.40;69.70;;;;;;4990188;28;20526;-17
2022/11/30 10:59:49;;;;;;;0.85;0.68;;;17.30;70.10;;;;;;4991275;28;20046;-16
2022/11/30 11:02:39;;;;;;;0.50;0.50;;;17.40;70.00;;;;;;5019144;28;20052;-20
2022/11/30 11:05:07;;;;;;;0.57;0.57;;;17.40;69.80;;;;;;4990302;28;20532;-16
2022/11/30 11:07:33;;;;;;;0.70;0.70;;;17.50;69.50;;;;;;4990802;28;20042;-17
2022/11/30 11:10:00;;;;;;;0.45;0.45;;;17.30;69.80;;;;;;4988758;28;20104;-21
2022/11/30 11:12:27;;;;;;;0.47;0.47;;;17.40;69.80;;;;;;4989088;28;20057;-17
2022/11/30 11:15:08;;;;;;;0.63;0.60;;;17.40;69.90;;;;;;4988842;28;20034;-18
2022/11/30 11:17:34;;;;;;;0.43;0.43;;;17.40;69.50;;;;;;4989404;28;20050;-17
2022/11/30 11:19:59;;;;;;;1.60;0.50;;;17.40;69.60;;;;;;4990193;28;20047;-17
2022/11/30 11:22:26;;;;;;;2.05;0.50;;;17.40;69.60;;;;;;4990099;28;20486;-17
2022/11/30 11:25:15;;;;;;;0.60;0.55;;;17.40;69.50;;;;;;4986312;28;20046;-17
2022/11/30 11:27:40;;;;;;;1.10;0.40;;;17.50;69.70;;;;;;5018919;28;20513;-17
2022/11/30 11:30:15;;;;;;;0.60;0.60;;;17.40;69.70;;;;;;4988800;28;20041;-17
2022/11/30 11:32:40;;;;;;;0.35;0.35;;;17.50;69.30;;;;;;4985293;28;20034;-17
2022/11/30 11:35:31;;;;;;;0.57;0.57;;;17.40;69.50;;;;;;4977521;28;20072;-23
2022/11/30 11:37:56;;;;;;;0.50;0.50;;;17.30;69.70;;;;;;4982631;28;20133;-16
2022/11/30 11:40:23;;;;;;;1.88;0.40;;;17.30;69.80;;;;;;4976856;28;20133;-17
2022/11/30 11:42:53;;;;;;;0.70;0.55;;;17.30;70.20;;;;;;5012462;28;20097;-17
2022/11/30 11:45:25;;;;;;;1.27;0.40;;;17.20;70.80;;;;;;4985378;28;20038;-16
2022/11/30 11:48:04;;;;;;;0.50;0.50;;;17.20;70.90;;;;;;4985671;28;20130;-17
2022/11/30 11:50:32;;;;;;;0.68;0.50;;;17.30;71.00;;;;;;4962895;28;20081;-16
2022/11/30 11:53:22;;;;;;;0.50;0.50;;;17.30;71.50;;;;;;4981962;28;20039;-16
2022/11/30 11:55:56;;;;;;;0.57;0.57;;;17.30;72.40;;;;;;4975349;28;20056;-17
2022/11/30 11:58:40;;;;;;;0.82;0.70;;;17.40;72.90;;;;;;4978333;28;20125;-17
2022/11/30 12:01:09;;;;;;;0.68;0.68;;;17.50;72.20;;;;;;4980550;28;20113;-17
2022/11/30 12:03:56;;;;;;;1.45;1.00;;;17.60;72.30;;;;;;4983968;28;20050;-20
2022/11/30 12:06:21;;;;;;;0.60;0.60;;;17.90;71.50;;;;;;4981116;28;20042;-17
2022/11/30 12:08:51;;;;;;;1.67;0.50;;;18.00;70.90;;;;;;4980658;28;20050;-17
2022/11/30 12:11:24;;;;;;;0.70;0.70;;;18.00;70.50;;;;;;4638001;28;10000303;-17
2022/11/30 12:13:50;;;;;;;0.93;0.93;;;18.00;70.60;;;;;;4632308;28;9999988;-16
2022/11/30 12:16:18;;;;;;;1.60;0.60;;;18.10;70.50;;;;;;4984109;28;20046;-17
2022/11/30 12:18:58;;;;;;;1.13;0.70;;;18.10;70.30;;;;;;4977799;28;20053;-16
2022/11/30 12:21:55;;;;;;;0.88;0.70;;;18.10;70.10;;;;;;5005445;28;20059;-17
2022/11/30 12:24:33;;;;;;;1.85;0.60;;;18.10;70.30;;;;;;4981220;28;20087;-17
2022/11/30 12:27:16;;;;;;;0.77;0.70;;;18.10;70.00;;;;;;4985101;28;20105;-17
2022/11/30 12:29:54;;;;;;;0.80;0.80;;;18.10;69.60;;;;;;4980097;28;20050;-17
2022/11/30 12:32:44;;;;;;;0.75;0.60;;;18.20;69.50;;;;;;4977223;28;20030;-16
2022/11/30 12:35:28;;;;;;;1.35;0.70;;;18.20;69.30;;;;;;4976074;28;20492;-17
2022/11/30 12:38:12;;;;;;;0.82;0.80;;;18.20;69.30;;;;;;4977430;28;20057;-17
2022/11/30 12:40:41;;;;;;;;;;;18.20;69.30;;;;;;4979656;28;20042;-22
2022/11/30 12:43:35;;;;;;;0.55;0.55;;;18.10;69.20;;;;;;4976464;28;19922;-17
2022/11/30 12:46:30;;;;;;;0.73;0.47;;;18.20;69.00;;;;;;4977832;28;20042;-17
2022/11/30 12:49:15;;;;;;;1.90;0.73;;;18.20;69.00;;;;;;4977025;28;20383;-17
2022/11/30 12:51:55;;;;;;;0.75;0.50;;;18.20;68.80;;;;;;4980360;28;20053;-16
2022/11/30 12:54:30;;;;;;;1.60;0.50;;;18.20;68.60;;;;;;4975101;28;20124;-17
2022/11/30 12:57:13;;;;;;;0.70;0.55;;;18.20;68.50;;;;;;4979404;28;20168;-17
2022/11/30 12:59:42;;;;;;;1.67;0.40;;;18.10;68.50;;;;;;4978568;28;20046;-22
2022/11/30 13:02:43;;;;;;;0.57;0.50;;;18.20;68.60;;;;;;4982013;28;20037;-16